AUA26Y EDDH-LOWW
Flight info
| Callsign | AUA26Y |
|---|---|
| Flight time | 1h 8m |
| Altitude | 41000 |
| Route | RAMAR6G/33 RAMAR Z998 RATMO DCT HDO DCT EVIKU DCT BITSI DCT MIKOV MIKOV8W |
| Aircraft | B772/H-SDE2E3FGHIJ5LORVWXY/LB1D1 |
Departure
| Time | 2026-05-05 17:41 |
|---|---|
| Airport | Hamburg Helmut Schmidt Airport (EDDH) |
Arrival
| Time | 2026-05-05 18:49 |
|---|---|
| Airport | Vienna International Airport (LOWW) |
| Time | Latitude | Longitude | Altitude | Speed | Heading |
|---|---|---|---|---|---|
| 2026-05-05 17:14 | 53.63014 | 10.00334 | 48 ft | 0 kts | 123° |
| 2026-05-05 17:30 | 53.63020 | 10.00319 | 56 ft | 4 kts | 123° |
| 2026-05-05 17:30 | 53.63032 | 10.00289 | 48 ft | 4 kts | 127° |
| 2026-05-05 17:30 | 53.63050 | 10.00256 | 48 ft | 4 kts | 143° |
| 2026-05-05 17:30 | 53.63073 | 10.00233 | 48 ft | 4 kts | 165° |
| 2026-05-05 17:31 | 53.63095 | 10.00228 | 48 ft | 4 kts | 176° |
| 2026-05-05 17:31 | 53.63113 | 10.00225 | 48 ft | 0 kts | 176° |
| 2026-05-05 17:34 | 53.63107 | 10.00226 | 48 ft | 5 kts | 176° |
| 2026-05-05 17:34 | 53.63070 | 10.00220 | 48 ft | 9 kts | 196° |
| 2026-05-05 17:35 | 53.62995 | 10.00147 | 49 ft | 9 kts | 211° |
| 2026-05-05 17:35 | 53.62964 | 10.00114 | 49 ft | 2 kts | 213° |
| 2026-05-05 17:35 | 53.62960 | 10.00110 | 49 ft | 1 kts | 213° |
| 2026-05-05 17:35 | 53.62956 | 10.00106 | 51 ft | 1 kts | 213° |
| 2026-05-05 17:36 | 53.62955 | 10.00105 | 51 ft | 0 kts | 213° |
| 2026-05-05 17:36 | 53.62955 | 10.00104 | 51 ft | 0 kts | 213° |
| 2026-05-05 17:37 | 53.62954 | 10.00104 | 51 ft | 0 kts | 213° |
| 2026-05-05 17:37 | 53.62933 | 10.00079 | 50 ft | 6 kts | 214° |
| 2026-05-05 17:37 | 53.62893 | 10.00048 | 50 ft | 6 kts | 202° |
| 2026-05-05 17:38 | 53.62860 | 10.00002 | 52 ft | 6 kts | 231° |
| 2026-05-05 17:38 | 53.62852 | 9.99981 | 53 ft | 2 kts | 238° |
| 2026-05-05 17:38 | 53.62851 | 9.99977 | 53 ft | 0 kts | 238° |
| 2026-05-05 17:39 | 53.62829 | 9.99916 | 51 ft | 10 kts | 240° |
| 2026-05-05 17:39 | 53.62812 | 9.99823 | 52 ft | 7 kts | 276° |
| 2026-05-05 17:39 | 53.62836 | 9.99772 | 50 ft | 0 kts | 326° |
| 2026-05-05 17:40 | 53.62839 | 9.99770 | 51 ft | 0 kts | 329° |
| 2026-05-05 17:40 | 53.62854 | 9.99755 | 50 ft | 15 kts | 331° |
| 2026-05-05 17:40 | 53.63203 | 9.99452 | 49 ft | 103 kts | 333° |
| 2026-05-05 17:41 | 53.64094 | 9.98682 | 122 ft | 176 kts | 334° |
| 2026-05-05 17:41 | 53.65206 | 9.97707 | 1175 ft | 171 kts | 336° |
| 2026-05-05 17:41 | 53.66217 | 9.96843 | 2480 ft | 162 kts | 337° |
| 2026-05-05 17:41 | 53.67307 | 9.95920 | 2986 ft | 192 kts | 336° |
| 2026-05-05 17:42 | 53.68576 | 9.94882 | 3499 ft | 208 kts | 342° |
| 2026-05-05 17:42 | 53.70059 | 9.94577 | 3814 ft | 226 kts | 4° |
| 2026-05-05 17:42 | 53.71701 | 9.94678 | 4270 ft | 246 kts | 5° |
| 2026-05-05 17:42 | 53.73367 | 9.95478 | 4742 ft | 259 kts | 36° |
| 2026-05-05 17:43 | 53.74514 | 9.97835 | 5491 ft | 266 kts | 62° |
| 2026-05-05 17:43 | 53.75324 | 10.00706 | 6135 ft | 276 kts | 64° |
| 2026-05-05 17:43 | 53.76158 | 10.03678 | 6891 ft | 282 kts | 64° |
| 2026-05-05 17:43 | 53.77011 | 10.06707 | 7685 ft | 287 kts | 64° |
| 2026-05-05 17:44 | 53.77877 | 10.09766 | 8515 ft | 291 kts | 64° |
| 2026-05-05 17:44 | 53.78761 | 10.12880 | 9250 ft | 297 kts | 64° |
| 2026-05-05 17:44 | 53.79653 | 10.16010 | 9963 ft | 302 kts | 64° |
| 2026-05-05 17:44 | 53.80588 | 10.19282 | 10337 ft | 320 kts | 64° |
| 2026-05-05 17:45 | 53.81592 | 10.22787 | 10664 ft | 340 kts | 63° |
| 2026-05-05 17:45 | 53.82638 | 10.26442 | 11324 ft | 350 kts | 63° |
| 2026-05-05 17:45 | 53.83711 | 10.30196 | 12212 ft | 357 kts | 64° |
| 2026-05-05 17:45 | 53.84550 | 10.34114 | 13039 ft | 359 kts | 82° |
| 2026-05-05 17:46 | 53.84444 | 10.38348 | 13915 ft | 361 kts | 104° |
| 2026-05-05 17:46 | 53.83845 | 10.42515 | 14637 ft | 370 kts | 105° |
| 2026-05-05 17:46 | 53.83088 | 10.46684 | 15396 ft | 373 kts | 116° |
| 2026-05-05 17:46 | 53.81686 | 10.50371 | 16269 ft | 374 kts | 135° |
| 2026-05-05 17:47 | 53.79757 | 10.53270 | 17163 ft | 371 kts | 144° |
| 2026-05-05 17:47 | 53.77734 | 10.56077 | 17892 ft | 381 kts | 143° |
| 2026-05-05 17:47 | 53.75708 | 10.58965 | 18853 ft | 380 kts | 142° |
| 2026-05-05 17:47 | 53.73691 | 10.61871 | 19715 ft | 383 kts | 142° |
| 2026-05-05 17:48 | 53.71656 | 10.64811 | 20473 ft | 388 kts | 143° |
| 2026-05-05 17:48 | 53.69596 | 10.67790 | 21197 ft | 393 kts | 143° |
| 2026-05-05 17:48 | 53.67512 | 10.70805 | 21939 ft | 397 kts | 143° |
| 2026-05-05 17:48 | 53.65407 | 10.73849 | 22669 ft | 401 kts | 143° |
| 2026-05-05 17:49 | 53.63278 | 10.76925 | 22923 ft | 404 kts | 143° |
| 2026-05-05 17:49 | 53.61139 | 10.80014 | 22906 ft | 405 kts | 143° |
| 2026-05-05 17:49 | 53.59007 | 10.83091 | 22906 ft | 404 kts | 143° |
| 2026-05-05 17:49 | 53.56874 | 10.86165 | 22903 ft | 403 kts | 143° |
| 2026-05-05 17:50 | 53.54743 | 10.89231 | 22902 ft | 404 kts | 143° |
| 2026-05-05 17:50 | 53.52608 | 10.92297 | 22887 ft | 404 kts | 143° |
| 2026-05-05 17:50 | 53.50496 | 10.95326 | 22886 ft | 405 kts | 143° |
| 2026-05-05 17:50 | 53.48355 | 10.98390 | 22881 ft | 404 kts | 143° |
| 2026-05-05 17:51 | 53.46216 | 11.01449 | 22888 ft | 403 kts | 143° |
| 2026-05-05 17:51 | 53.44089 | 11.04489 | 22889 ft | 402 kts | 143° |
| 2026-05-05 17:51 | 53.41964 | 11.07521 | 22886 ft | 401 kts | 143° |
| 2026-05-05 17:51 | 53.39840 | 11.10546 | 22887 ft | 400 kts | 143° |
| 2026-05-05 17:52 | 53.37722 | 11.13560 | 22884 ft | 399 kts | 143° |
| 2026-05-05 17:52 | 53.35602 | 11.16570 | 22879 ft | 399 kts | 143° |
| 2026-05-05 17:52 | 53.33483 | 11.19575 | 22880 ft | 399 kts | 143° |
| 2026-05-05 17:52 | 53.31363 | 11.22578 | 22878 ft | 400 kts | 143° |
| 2026-05-05 17:53 | 53.29241 | 11.25579 | 22881 ft | 400 kts | 143° |
| 2026-05-05 17:53 | 53.27095 | 11.28608 | 23404 ft | 406 kts | 143° |
| 2026-05-05 17:53 | 53.24932 | 11.31657 | 24076 ft | 408 kts | 143° |
| 2026-05-05 17:53 | 53.22757 | 11.34720 | 24759 ft | 410 kts | 144° |
| 2026-05-05 17:54 | 53.20568 | 11.37800 | 25372 ft | 414 kts | 144° |
| 2026-05-05 17:54 | 53.18359 | 11.40901 | 26025 ft | 416 kts | 144° |
| 2026-05-05 17:54 | 53.16140 | 11.44015 | 26716 ft | 418 kts | 144° |
| 2026-05-05 17:54 | 53.13907 | 11.47143 | 27324 ft | 422 kts | 144° |
| 2026-05-05 17:55 | 53.11647 | 11.50303 | 27924 ft | 427 kts | 144° |
| 2026-05-05 17:55 | 53.09360 | 11.53496 | 28513 ft | 431 kts | 144° |
| 2026-05-05 17:55 | 53.07052 | 11.56714 | 29123 ft | 435 kts | 145° |
| 2026-05-05 17:55 | 53.04727 | 11.59953 | 29732 ft | 438 kts | 145° |
| 2026-05-05 17:56 | 53.02380 | 11.63218 | 30262 ft | 442 kts | 145° |
| 2026-05-05 17:56 | 53.00012 | 11.66506 | 30781 ft | 445 kts | 145° |
| 2026-05-05 17:56 | 52.97628 | 11.69813 | 31299 ft | 448 kts | 146° |
| 2026-05-05 17:56 | 52.95232 | 11.73131 | 31766 ft | 451 kts | 146° |
| 2026-05-05 17:57 | 52.92807 | 11.76483 | 32160 ft | 456 kts | 146° |
| 2026-05-05 17:57 | 52.90358 | 11.79862 | 32622 ft | 459 kts | 146° |
| 2026-05-05 17:57 | 52.87899 | 11.83252 | 33085 ft | 462 kts | 147° |
| 2026-05-05 17:57 | 52.85424 | 11.86660 | 33537 ft | 464 kts | 147° |
| 2026-05-05 17:58 | 52.82938 | 11.90078 | 33954 ft | 466 kts | 147° |
| 2026-05-05 17:58 | 52.80433 | 11.93516 | 34271 ft | 470 kts | 147° |
| 2026-05-05 17:58 | 52.77908 | 11.96974 | 34543 ft | 473 kts | 147° |
| 2026-05-05 17:58 | 52.75364 | 12.00453 | 34839 ft | 476 kts | 146° |
| 2026-05-05 17:59 | 52.72812 | 12.03941 | 35219 ft | 476 kts | 146° |
| 2026-05-05 17:59 | 52.70262 | 12.07422 | 35621 ft | 476 kts | 146° |
| 2026-05-05 17:59 | 52.67707 | 12.10903 | 36016 ft | 477 kts | 146° |
| 2026-05-05 17:59 | 52.65142 | 12.14390 | 36304 ft | 479 kts | 146° |
| 2026-05-05 18:00 | 52.62569 | 12.17882 | 36669 ft | 479 kts | 146° |
| 2026-05-05 18:00 | 52.60043 | 12.21307 | 37231 ft | 475 kts | 146° |
| 2026-05-05 18:00 | 52.57495 | 12.24757 | 37648 ft | 475 kts | 146° |
| 2026-05-05 18:00 | 52.54939 | 12.28210 | 37953 ft | 477 kts | 146° |
| 2026-05-05 18:01 | 52.52373 | 12.31669 | 38279 ft | 478 kts | 145° |
| 2026-05-05 18:01 | 52.49804 | 12.35127 | 38601 ft | 478 kts | 145° |
| 2026-05-05 18:01 | 52.47234 | 12.38583 | 38889 ft | 478 kts | 145° |
| 2026-05-05 18:01 | 52.44662 | 12.42036 | 39150 ft | 478 kts | 145° |
| 2026-05-05 18:02 | 52.42088 | 12.45486 | 39402 ft | 478 kts | 145° |
| 2026-05-05 18:02 | 52.39509 | 12.48937 | 39644 ft | 479 kts | 145° |
| 2026-05-05 18:02 | 52.36928 | 12.52386 | 39915 ft | 478 kts | 145° |
| 2026-05-05 18:02 | 52.34351 | 12.55825 | 40177 ft | 479 kts | 145° |
| 2026-05-05 18:03 | 52.31773 | 12.59260 | 40493 ft | 477 kts | 144° |
| 2026-05-05 18:03 | 52.29205 | 12.62675 | 40747 ft | 477 kts | 144° |
| 2026-05-05 18:03 | 52.26618 | 12.66108 | 40786 ft | 482 kts | 144° |
| 2026-05-05 18:04 | 52.21391 | 12.73030 | 40813 ft | 484 kts | 144° |
| 2026-05-05 18:04 | 52.16220 | 12.79867 | 40814 ft | 476 kts | 145° |
| 2026-05-05 18:05 | 52.11077 | 12.86640 | 40815 ft | 475 kts | 145° |
| 2026-05-05 18:05 | 52.05938 | 12.93383 | 40825 ft | 475 kts | 145° |
| 2026-05-05 18:06 | 52.00797 | 13.00108 | 40812 ft | 474 kts | 145° |
| 2026-05-05 18:06 | 51.95688 | 13.06774 | 40813 ft | 474 kts | 145° |
| 2026-05-05 18:07 | 51.90531 | 13.13458 | 40807 ft | 475 kts | 145° |
| 2026-05-05 18:07 | 51.85350 | 13.20107 | 40805 ft | 475 kts | 145° |
| 2026-05-05 18:08 | 51.80179 | 13.26766 | 40798 ft | 476 kts | 145° |
| 2026-05-05 18:08 | 51.75003 | 13.33440 | 40795 ft | 476 kts | 145° |
| 2026-05-05 18:09 | 51.69826 | 13.40103 | 40802 ft | 476 kts | 145° |
| 2026-05-05 18:09 | 51.64641 | 13.46757 | 40800 ft | 477 kts | 145° |
| 2026-05-05 18:10 | 51.59448 | 13.53396 | 40796 ft | 477 kts | 145° |
| 2026-05-05 18:10 | 51.54253 | 13.60019 | 40780 ft | 477 kts | 145° |
| 2026-05-05 18:11 | 51.49057 | 13.66624 | 40786 ft | 476 kts | 145° |
| 2026-05-05 18:11 | 51.43859 | 13.73212 | 40781 ft | 476 kts | 145° |
| 2026-05-05 18:12 | 51.38666 | 13.79773 | 40787 ft | 475 kts | 145° |
| 2026-05-05 18:12 | 51.33471 | 13.86317 | 40789 ft | 475 kts | 145° |
| 2026-05-05 18:13 | 51.28276 | 13.92842 | 40796 ft | 475 kts | 145° |
| 2026-05-05 18:13 | 51.23080 | 13.99350 | 40797 ft | 475 kts | 145° |
| 2026-05-05 18:14 | 51.17878 | 14.05845 | 40794 ft | 475 kts | 145° |
| 2026-05-05 18:14 | 51.12712 | 14.12278 | 40784 ft | 474 kts | 145° |
| 2026-05-05 18:15 | 51.07474 | 14.18780 | 40787 ft | 474 kts | 145° |
| 2026-05-05 18:15 | 51.02289 | 14.25139 | 40780 ft | 474 kts | 146° |
| 2026-05-05 18:16 | 50.97036 | 14.31472 | 40766 ft | 474 kts | 146° |
| 2026-05-05 18:16 | 50.91788 | 14.37781 | 40772 ft | 474 kts | 146° |
| 2026-05-05 18:17 | 50.86542 | 14.44086 | 40776 ft | 473 kts | 146° |
| 2026-05-05 18:17 | 50.81295 | 14.50382 | 40777 ft | 473 kts | 146° |
| 2026-05-05 18:18 | 50.76044 | 14.56664 | 40760 ft | 473 kts | 146° |
| 2026-05-05 18:18 | 50.70798 | 14.62923 | 40765 ft | 473 kts | 146° |
| 2026-05-05 18:19 | 50.65549 | 14.69167 | 40760 ft | 473 kts | 146° |
| 2026-05-05 18:19 | 50.60297 | 14.75396 | 40744 ft | 473 kts | 146° |
| 2026-05-05 18:20 | 50.55041 | 14.81612 | 40745 ft | 473 kts | 146° |
| 2026-05-05 18:20 | 50.49780 | 14.87817 | 40745 ft | 473 kts | 146° |
| 2026-05-05 18:21 | 50.44510 | 14.94014 | 40744 ft | 473 kts | 146° |
| 2026-05-05 18:21 | 50.39235 | 15.00198 | 40728 ft | 474 kts | 146° |
| 2026-05-05 18:22 | 50.33948 | 15.06381 | 40732 ft | 474 kts | 146° |
| 2026-05-05 18:22 | 50.28655 | 15.12551 | 40736 ft | 475 kts | 146° |
| 2026-05-05 18:23 | 50.23355 | 15.18714 | 40734 ft | 475 kts | 146° |
| 2026-05-05 18:23 | 50.18046 | 15.24869 | 40735 ft | 476 kts | 146° |
| 2026-05-05 18:24 | 50.12729 | 15.31016 | 40727 ft | 476 kts | 146° |
| 2026-05-05 18:24 | 50.10070 | 15.34083 | 40604 ft | 478 kts | 146° |
| 2026-05-05 18:24 | 50.07364 | 15.37197 | 39782 ft | 484 kts | 147° |
| 2026-05-05 18:24 | 50.04677 | 15.40290 | 39333 ft | 477 kts | 147° |
| 2026-05-05 18:25 | 50.02064 | 15.43296 | 38884 ft | 471 kts | 147° |
| 2026-05-05 18:25 | 50.01175 | 15.44317 | 38731 ft | 469 kts | 147° |
| 2026-05-05 18:25 | 49.96856 | 15.49273 | 37897 ft | 460 kts | 147° |
| 2026-05-05 18:25 | 49.94297 | 15.52200 | 37424 ft | 454 kts | 147° |
| 2026-05-05 18:26 | 49.91772 | 15.55084 | 37009 ft | 448 kts | 147° |
| 2026-05-05 18:26 | 49.89281 | 15.57927 | 36599 ft | 442 kts | 147° |
| 2026-05-05 18:26 | 49.86816 | 15.60734 | 36155 ft | 437 kts | 147° |
| 2026-05-05 18:26 | 49.84385 | 15.63500 | 35761 ft | 431 kts | 147° |
| 2026-05-05 18:27 | 49.82790 | 15.65312 | 35506 ft | 428 kts | 147° |
| 2026-05-05 18:27 | 49.80391 | 15.68034 | 35068 ft | 431 kts | 146° |
| 2026-05-05 18:27 | 49.77900 | 15.70850 | 34660 ft | 455 kts | 146° |
| 2026-05-05 18:27 | 49.75280 | 15.73807 | 34218 ft | 477 kts | 146° |
| 2026-05-05 18:28 | 49.69705 | 15.80101 | 33312 ft | 511 kts | 146° |
| 2026-05-05 18:28 | 49.66808 | 15.83372 | 32990 ft | 519 kts | 146° |
| 2026-05-05 18:28 | 49.63924 | 15.86629 | 32551 ft | 507 kts | 146° |
| 2026-05-05 18:29 | 49.61097 | 15.89818 | 31650 ft | 499 kts | 146° |
| 2026-05-05 18:29 | 49.58322 | 15.92940 | 31004 ft | 487 kts | 146° |
| 2026-05-05 18:29 | 49.55624 | 15.95967 | 30576 ft | 474 kts | 146° |
| 2026-05-05 18:29 | 49.52921 | 15.98991 | 30133 ft | 491 kts | 146° |
| 2026-05-05 18:30 | 49.50099 | 16.02137 | 29591 ft | 511 kts | 146° |
| 2026-05-05 18:30 | 49.47200 | 16.05368 | 29116 ft | 509 kts | 146° |
| 2026-05-05 18:30 | 49.44382 | 16.08516 | 28434 ft | 495 kts | 146° |
| 2026-05-05 18:30 | 49.41631 | 16.11586 | 27882 ft | 483 kts | 146° |
| 2026-05-05 18:31 | 49.38938 | 16.14582 | 27365 ft | 473 kts | 146° |
| 2026-05-05 18:31 | 49.36292 | 16.17519 | 26862 ft | 466 kts | 146° |
| 2026-05-05 18:31 | 49.33681 | 16.20412 | 26376 ft | 460 kts | 146° |
| 2026-05-05 18:31 | 49.31079 | 16.23199 | 25918 ft | 454 kts | 150° |
| 2026-05-05 18:32 | 49.28356 | 16.25568 | 25452 ft | 447 kts | 156° |
| 2026-05-05 18:32 | 49.25557 | 16.27600 | 24994 ft | 443 kts | 157° |
| 2026-05-05 18:32 | 49.22760 | 16.29313 | 24667 ft | 419 kts | 166° |
| 2026-05-05 18:32 | 49.20000 | 16.30158 | 23859 ft | 392 kts | 176° |
| 2026-05-05 18:33 | 49.17364 | 16.30391 | 23074 ft | 368 kts | 181° |
| 2026-05-05 18:33 | 49.14861 | 16.30215 | 22329 ft | 359 kts | 186° |
| 2026-05-05 18:33 | 49.12364 | 16.29890 | 21658 ft | 361 kts | 186° |
| 2026-05-05 18:33 | 49.09847 | 16.29568 | 20983 ft | 364 kts | 186° |
| 2026-05-05 18:34 | 49.07318 | 16.29246 | 20349 ft | 366 kts | 186° |
| 2026-05-05 18:34 | 49.04808 | 16.28931 | 19726 ft | 367 kts | 186° |
| 2026-05-05 18:34 | 49.02257 | 16.28612 | 19102 ft | 368 kts | 186° |
| 2026-05-05 18:34 | 48.99705 | 16.28295 | 18447 ft | 369 kts | 186° |
| 2026-05-05 18:35 | 48.97190 | 16.27985 | 17706 ft | 354 kts | 185° |
| 2026-05-05 18:35 | 48.94816 | 16.27696 | 17001 ft | 330 kts | 186° |
| 2026-05-05 18:35 | 48.92604 | 16.27427 | 16416 ft | 310 kts | 185° |
| 2026-05-05 18:35 | 48.90482 | 16.27167 | 15845 ft | 304 kts | 185° |
| 2026-05-05 18:36 | 48.88353 | 16.26906 | 15331 ft | 311 kts | 186° |
| 2026-05-05 18:36 | 48.86181 | 16.26639 | 14800 ft | 315 kts | 186° |
| 2026-05-05 18:36 | 48.83990 | 16.26370 | 14267 ft | 317 kts | 185° |
| 2026-05-05 18:36 | 48.81785 | 16.26101 | 13755 ft | 318 kts | 186° |
| 2026-05-05 18:37 | 48.79577 | 16.25830 | 13201 ft | 320 kts | 185° |
| 2026-05-05 18:37 | 48.77349 | 16.25557 | 12625 ft | 321 kts | 185° |
| 2026-05-05 18:37 | 48.75128 | 16.25286 | 12184 ft | 320 kts | 185° |
| 2026-05-05 18:37 | 48.72922 | 16.25017 | 11778 ft | 316 kts | 185° |
| 2026-05-05 18:38 | 48.70740 | 16.24753 | 11400 ft | 313 kts | 185° |
| 2026-05-05 18:38 | 48.68590 | 16.24492 | 11030 ft | 304 kts | 185° |
| 2026-05-05 18:38 | 48.66521 | 16.24242 | 10688 ft | 296 kts | 185° |
| 2026-05-05 18:38 | 48.64480 | 16.23995 | 10356 ft | 293 kts | 185° |
| 2026-05-05 18:39 | 48.62464 | 16.23751 | 10106 ft | 286 kts | 185° |
| 2026-05-05 18:39 | 48.60526 | 16.23516 | 10048 ft | 275 kts | 185° |
| 2026-05-05 18:39 | 48.58622 | 16.23286 | 9856 ft | 276 kts | 185° |
| 2026-05-05 18:39 | 48.56696 | 16.23053 | 9565 ft | 278 kts | 185° |
| 2026-05-05 18:40 | 48.54789 | 16.22822 | 9286 ft | 273 kts | 185° |
| 2026-05-05 18:40 | 48.52915 | 16.22598 | 8993 ft | 269 kts | 185° |
| 2026-05-05 18:40 | 48.51056 | 16.22373 | 8666 ft | 267 kts | 185° |
| 2026-05-05 18:40 | 48.49214 | 16.22151 | 8381 ft | 264 kts | 185° |
| 2026-05-05 18:41 | 48.47395 | 16.21933 | 8127 ft | 261 kts | 185° |
| 2026-05-05 18:41 | 48.45594 | 16.21716 | 7884 ft | 260 kts | 185° |
| 2026-05-05 18:41 | 48.43800 | 16.21501 | 7632 ft | 258 kts | 185° |
| 2026-05-05 18:41 | 48.42016 | 16.21285 | 7374 ft | 257 kts | 184° |
| 2026-05-05 18:42 | 48.40230 | 16.21072 | 7130 ft | 258 kts | 185° |
| 2026-05-05 18:42 | 48.38452 | 16.20969 | 6824 ft | 256 kts | 178° |
| 2026-05-05 18:42 | 48.36678 | 16.21146 | 6548 ft | 255 kts | 176° |
| 2026-05-05 18:42 | 48.34914 | 16.21400 | 6255 ft | 254 kts | 175° |
| 2026-05-05 18:43 | 48.33192 | 16.21876 | 5951 ft | 251 kts | 167° |
| 2026-05-05 18:43 | 48.31537 | 16.22578 | 5669 ft | 251 kts | 166° |
| 2026-05-05 18:43 | 48.29874 | 16.23351 | 5357 ft | 250 kts | 166° |
| 2026-05-05 18:43 | 48.28228 | 16.24171 | 5071 ft | 249 kts | 166° |
| 2026-05-05 18:44 | 48.26601 | 16.25026 | 4812 ft | 246 kts | 165° |
| 2026-05-05 18:44 | 48.24993 | 16.25880 | 4546 ft | 245 kts | 165° |
| 2026-05-05 18:44 | 48.23395 | 16.26722 | 4279 ft | 243 kts | 165° |
| 2026-05-05 18:44 | 48.21810 | 16.27573 | 4012 ft | 240 kts | 160° |
| 2026-05-05 18:45 | 48.20470 | 16.29065 | 3724 ft | 248 kts | 133° |
| 2026-05-05 18:45 | 48.19544 | 16.31213 | 3560 ft | 241 kts | 126° |
| 2026-05-05 18:45 | 48.18763 | 16.33367 | 3556 ft | 229 kts | 123° |
| 2026-05-05 18:45 | 48.18070 | 16.35481 | 3256 ft | 223 kts | 121° |
| 2026-05-05 18:46 | 48.17408 | 16.37540 | 2952 ft | 217 kts | 122° |
| 2026-05-05 18:46 | 48.16759 | 16.39545 | 2663 ft | 211 kts | 122° |
| 2026-05-05 18:46 | 48.16133 | 16.41484 | 2370 ft | 201 kts | 122° |
| 2026-05-05 18:46 | 48.15555 | 16.43269 | 2119 ft | 176 kts | 123° |
| 2026-05-05 18:47 | 48.15064 | 16.44793 | 1856 ft | 148 kts | 128° |
| 2026-05-05 18:47 | 48.14653 | 16.46061 | 1685 ft | 124 kts | 131° |
| 2026-05-05 18:47 | 48.14292 | 16.47155 | 1511 ft | 115 kts | 126° |
| 2026-05-05 18:47 | 48.13929 | 16.48264 | 1360 ft | 122 kts | 123° |
| 2026-05-05 18:48 | 48.13568 | 16.49376 | 1195 ft | 119 kts | 125° |
| 2026-05-05 18:48 | 48.13206 | 16.50498 | 1029 ft | 119 kts | 123° |
| 2026-05-05 18:48 | 48.12848 | 16.51613 | 892 ft | 121 kts | 122° |
| 2026-05-05 18:48 | 48.12478 | 16.52754 | 718 ft | 119 kts | 121° |
| 2026-05-05 18:49 | 48.12122 | 16.53859 | 638 ft | 117 kts | 123° |
| 2026-05-05 18:49 | 48.11803 | 16.54803 | 626 ft | 82 kts | 115° |
| 2026-05-05 18:49 | 48.11628 | 16.55337 | 626 ft | 41 kts | 115° |
| 2026-05-05 18:49 | 48.11525 | 16.55681 | 624 ft | 31 kts | 108° |
| 2026-05-05 18:50 | 48.11502 | 16.55967 | 623 ft | 18 kts | 85° |
| 2026-05-05 18:50 | 48.11521 | 16.56101 | 629 ft | 11 kts | 58° |
| 2026-05-05 18:50 | 48.11584 | 16.56167 | 629 ft | 11 kts | 27° |
| 2026-05-05 18:50 | 48.11650 | 16.56229 | 625 ft | 11 kts | 33° |
| 2026-05-05 18:51 | 48.11718 | 16.56287 | 624 ft | 11 kts | 29° |
| 2026-05-05 18:51 | 48.11757 | 16.56345 | 625 ft | 7 kts | 78° |
| 2026-05-05 18:51 | 48.11732 | 16.56449 | 625 ft | 12 kts | 115° |
| 2026-05-05 18:51 | 48.11695 | 16.56561 | 623 ft | 11 kts | 116° |
| 2026-05-05 18:52 | 48.11674 | 16.56630 | 629 ft | 4 kts | 110° |
| 2026-05-05 18:52 | 48.11687 | 16.56663 | 622 ft | 4 kts | 33° |
| 2026-05-05 18:52 | 48.11713 | 16.56684 | 620 ft | 4 kts | 27° |
| 2026-05-05 18:52 | 48.11734 | 16.56700 | 624 ft | 2 kts | 26° |
| 2026-05-05 18:53 | 48.11738 | 16.56703 | 624 ft | 0 kts | 26° |